sensor_id;sensor_type;location;lat;lon;timestamp;P1;durP1;ratioP1;P2;durP2;ratioP2
15393;SDS011;7795;47.986;11.868;2022-11-21T00:00:47;1.87;;;1.33;;
15393;SDS011;7795;47.986;11.868;2022-11-21T00:03:15;1.83;;;1.10;;
15393;SDS011;7795;47.986;11.868;2022-11-21T00:05:42;1.10;;;1.00;;
15393;SDS011;7795;47.986;11.868;2022-11-21T00:08:09;3.37;;;3.17;;
15393;SDS011;7795;47.986;11.868;2022-11-21T00:10:36;2.80;;;2.60;;
15393;SDS011;7795;47.986;11.868;2022-11-21T00:13:03;1.83;;;1.20;;
15393;SDS011;7795;47.986;11.868;2022-11-21T00:15:30;2.07;;;1.40;;
15393;SDS011;7795;47.986;11.868;2022-11-21T00:17:57;0.90;;;0.90;;
15393;SDS011;7795;47.986;11.868;2022-11-21T00:20:24;1.47;;;1.07;;
15393;SDS011;7795;47.986;11.868;2022-11-21T00:22:49;0.90;;;0.80;;
15393;SDS011;7795;47.986;11.868;2022-11-21T00:25:15;0.80;;;0.80;;
15393;SDS011;7795;47.986;11.868;2022-11-21T00:27:41;0.70;;;0.70;;
15393;SDS011;7795;47.986;11.868;2022-11-21T00:30:07;0.70;;;0.70;;
15393;SDS011;7795;47.986;11.868;2022-11-21T00:32:34;0.70;;;0.70;;
15393;SDS011;7795;47.986;11.868;2022-11-21T00:35:00;0.70;;;0.70;;
15393;SDS011;7795;47.986;11.868;2022-11-21T00:37:27;0.73;;;0.73;;
15393;SDS011;7795;47.986;11.868;2022-11-21T00:39:53;0.63;;;0.63;;
15393;SDS011;7795;47.986;11.868;2022-11-21T00:42:18;0.73;;;0.60;;
15393;SDS011;7795;47.986;11.868;2022-11-21T00:44:44;0.50;;;0.50;;
15393;SDS011;7795;47.986;11.868;2022-11-21T00:47:10;1.17;;;0.60;;
15393;SDS011;7795;47.986;11.868;2022-11-21T00:49:35;0.97;;;0.70;;
15393;SDS011;7795;47.986;11.868;2022-11-21T00:52:01;0.77;;;0.77;;
15393;SDS011;7795;47.986;11.868;2022-11-21T00:54:28;0.50;;;0.50;;
15393;SDS011;7795;47.986;11.868;2022-11-21T00:56:54;0.50;;;0.50;;
15393;SDS011;7795;47.986;11.868;2022-11-21T00:59:20;0.80;;;0.80;;
15393;SDS011;7795;47.986;11.868;2022-11-21T01:01:46;0.60;;;0.60;;
15393;SDS011;7795;47.986;11.868;2022-11-21T01:04:11;0.60;;;0.60;;
15393;SDS011;7795;47.986;11.868;2022-11-21T01:06:37;0.60;;;0.60;;
15393;SDS011;7795;47.986;11.868;2022-11-21T01:09:03;0.50;;;0.50;;
15393;SDS011;7795;47.986;11.868;2022-11-21T01:11:30;0.50;;;0.50;;
15393;SDS011;7795;47.986;11.868;2022-11-21T01:13:56;0.60;;;0.60;;
15393;SDS011;7795;47.986;11.868;2022-11-21T01:16:23;0.73;;;0.70;;
15393;SDS011;7795;47.986;11.868;2022-11-21T01:18:50;0.63;;;0.60;;
15393;SDS011;7795;47.986;11.868;2022-11-21T01:21:17;0.73;;;0.73;;
15393;SDS011;7795;47.986;11.868;2022-11-21T01:23:44;0.60;;;0.60;;
15393;SDS011;7795;47.986;11.868;2022-11-21T01:26:11;0.50;;;0.50;;
15393;SDS011;7795;47.986;11.868;2022-11-21T01:28:38;0.67;;;0.60;;
15393;SDS011;7795;47.986;11.868;2022-11-21T01:31:05;0.67;;;0.60;;
15393;SDS011;7795;47.986;11.868;2022-11-21T01:33:32;0.70;;;0.70;;
15393;SDS011;7795;47.986;11.868;2022-11-21T01:36:04;1.70;;;1.13;;
15393;SDS011;7795;47.986;11.868;2022-11-21T01:38:31;0.83;;;0.80;;
15393;SDS011;7795;47.986;11.868;2022-11-21T01:40:57;0.90;;;0.90;;
15393;SDS011;7795;47.986;11.868;2022-11-21T01:43:23;0.80;;;0.70;;
15393;SDS011;7795;47.986;11.868;2022-11-21T01:45:56;0.70;;;0.70;;
15393;SDS011;7795;47.986;11.868;2022-11-21T01:48:25;0.70;;;0.70;;
15393;SDS011;7795;47.986;11.868;2022-11-21T01:50:57;0.70;;;0.70;;
15393;SDS011;7795;47.986;11.868;2022-11-21T01:53:27;0.63;;;0.60;;
15393;SDS011;7795;47.986;11.868;2022-11-21T01:55:53;0.70;;;0.70;;
15393;SDS011;7795;47.986;11.868;2022-11-21T01:58:18;0.60;;;0.60;;
15393;SDS011;7795;47.986;11.868;2022-11-21T02:00:45;0.60;;;0.60;;
15393;SDS011;7795;47.986;11.868;2022-11-21T02:03:14;1.23;;;0.90;;
15393;SDS011;7795;47.986;11.868;2022-11-21T02:05:44;0.70;;;0.70;;
15393;SDS011;7795;47.986;11.868;2022-11-21T02:08:12;0.50;;;0.50;;
15393;SDS011;7795;47.986;11.868;2022-11-21T02:10:40;0.70;;;0.70;;
15393;SDS011;7795;47.986;11.868;2022-11-21T02:13:11;0.73;;;0.73;;
15393;SDS011;7795;47.986;11.868;2022-11-21T02:15:38;0.80;;;0.67;;
15393;SDS011;7795;47.986;11.868;2022-11-21T02:18:04;0.80;;;0.80;;
15393;SDS011;7795;47.986;11.868;2022-11-21T02:20:34;0.73;;;0.73;;
15393;SDS011;7795;47.986;11.868;2022-11-21T02:23:03;0.63;;;0.63;;
15393;SDS011;7795;47.986;11.868;2022-11-21T02:25:35;1.00;;;1.00;;
15393;SDS011;7795;47.986;11.868;2022-11-21T02:28:03;0.73;;;0.73;;
15393;SDS011;7795;47.986;11.868;2022-11-21T02:30:31;0.70;;;0.70;;
15393;SDS011;7795;47.986;11.868;2022-11-21T02:32:59;1.10;;;1.00;;
15393;SDS011;7795;47.986;11.868;2022-11-21T02:35:25;0.87;;;0.70;;
15393;SDS011;7795;47.986;11.868;2022-11-21T02:37:52;0.77;;;0.77;;
15393;SDS011;7795;47.986;11.868;2022-11-21T02:40:22;0.73;;;0.73;;
15393;SDS011;7795;47.986;11.868;2022-11-21T02:42:59;0.90;;;0.80;;
15393;SDS011;7795;47.986;11.868;2022-11-21T02:45:30;0.80;;;0.80;;
15393;SDS011;7795;47.986;11.868;2022-11-21T02:47:59;1.47;;;1.37;;
15393;SDS011;7795;47.986;11.868;2022-11-21T02:50:26;1.03;;;0.80;;
15393;SDS011;7795;47.986;11.868;2022-11-21T02:52:53;1.23;;;0.60;;
15393;SDS011;7795;47.986;11.868;2022-11-21T02:55:20;0.70;;;0.70;;
15393;SDS011;7795;47.986;11.868;2022-11-21T02:57:45;1.13;;;0.80;;
15393;SDS011;7795;47.986;11.868;2022-11-21T03:00:13;0.83;;;0.83;;
15393;SDS011;7795;47.986;11.868;2022-11-21T03:02:40;0.70;;;0.70;;
15393;SDS011;7795;47.986;11.868;2022-11-21T03:05:06;0.83;;;0.60;;
15393;SDS011;7795;47.986;11.868;2022-11-21T03:07:33;1.20;;;0.80;;
15393;SDS011;7795;47.986;11.868;2022-11-21T03:09:59;0.93;;;0.70;;
15393;SDS011;7795;47.986;11.868;2022-11-21T03:12:24;1.17;;;0.90;;
15393;SDS011;7795;47.986;11.868;2022-11-21T03:14:50;0.90;;;0.90;;
15393;SDS011;7795;47.986;11.868;2022-11-21T03:17:17;1.47;;;0.80;;
15393;SDS011;7795;47.986;11.868;2022-11-21T03:19:43;0.80;;;0.80;;
15393;SDS011;7795;47.986;11.868;2022-11-21T03:22:09;1.23;;;0.80;;
15393;SDS011;7795;47.986;11.868;2022-11-21T03:24:36;1.50;;;0.70;;
15393;SDS011;7795;47.986;11.868;2022-11-21T03:27:02;0.90;;;0.90;;
15393;SDS011;7795;47.986;11.868;2022-11-21T03:29:27;1.97;;;1.10;;
15393;SDS011;7795;47.986;11.868;2022-11-21T03:31:53;1.97;;;0.70;;
15393;SDS011;7795;47.986;11.868;2022-11-21T03:34:20;2.93;;;1.37;;
15393;SDS011;7795;47.986;11.868;2022-11-21T03:36:46;2.27;;;1.67;;
15393;SDS011;7795;47.986;11.868;2022-11-21T03:39:12;2.23;;;1.37;;
15393;SDS011;7795;47.986;11.868;2022-11-21T03:41:37;1.77;;;1.30;;
15393;SDS011;7795;47.986;11.868;2022-11-21T03:44:04;2.17;;;1.20;;
15393;SDS011;7795;47.986;11.868;2022-11-21T03:46:32;1.50;;;0.73;;
15393;SDS011;7795;47.986;11.868;2022-11-21T03:48:58;2.13;;;1.40;;
15393;SDS011;7795;47.986;11.868;2022-11-21T03:51:25;2.00;;;1.07;;
15393;SDS011;7795;47.986;11.868;2022-11-21T03:53:52;1.43;;;1.13;;
15393;SDS011;7795;47.986;11.868;2022-11-21T03:56:18;1.40;;;1.00;;
15393;SDS011;7795;47.986;11.868;2022-11-21T03:58:44;2.87;;;1.10;;
15393;SDS011;7795;47.986;11.868;2022-11-21T04:01:10;1.13;;;0.77;;
15393;SDS011;7795;47.986;11.868;2022-11-21T04:03:39;1.77;;;1.00;;
15393;SDS011;7795;47.986;11.868;2022-11-21T04:06:06;2.60;;;1.80;;
15393;SDS011;7795;47.986;11.868;2022-11-21T04:08:33;1.63;;;1.33;;
15393;SDS011;7795;47.986;11.868;2022-11-21T04:10:59;1.13;;;0.90;;
15393;SDS011;7795;47.986;11.868;2022-11-21T04:13:25;3.43;;;1.40;;
15393;SDS011;7795;47.986;11.868;2022-11-21T04:15:51;1.67;;;0.90;;
15393;SDS011;7795;47.986;11.868;2022-11-21T04:18:17;1.13;;;0.97;;
15393;SDS011;7795;47.986;11.868;2022-11-21T04:20:43;1.03;;;0.70;;
15393;SDS011;7795;47.986;11.868;2022-11-21T04:23:09;2.03;;;1.40;;
15393;SDS011;7795;47.986;11.868;2022-11-21T04:25:36;4.23;;;1.57;;
15393;SDS011;7795;47.986;11.868;2022-11-21T04:28:02;4.37;;;1.37;;
15393;SDS011;7795;47.986;11.868;2022-11-21T04:30:29;1.27;;;0.83;;
15393;SDS011;7795;47.986;11.868;2022-11-21T04:32:56;1.53;;;0.90;;
15393;SDS011;7795;47.986;11.868;2022-11-21T04:35:22;1.00;;;0.90;;
15393;SDS011;7795;47.986;11.868;2022-11-21T04:37:49;0.70;;;0.70;;
15393;SDS011;7795;47.986;11.868;2022-11-21T04:40:15;1.27;;;1.07;;
15393;SDS011;7795;47.986;11.868;2022-11-21T04:42:42;1.10;;;0.90;;
15393;SDS011;7795;47.986;11.868;2022-11-21T04:45:09;2.60;;;0.97;;
15393;SDS011;7795;47.986;11.868;2022-11-21T04:47:35;1.70;;;1.20;;
15393;SDS011;7795;47.986;11.868;2022-11-21T04:50:01;2.53;;;0.90;;
15393;SDS011;7795;47.986;11.868;2022-11-21T04:52:28;0.90;;;0.90;;
15393;SDS011;7795;47.986;11.868;2022-11-21T04:54:54;1.77;;;1.07;;
15393;SDS011;7795;47.986;11.868;2022-11-21T04:57:20;3.77;;;1.10;;
15393;SDS011;7795;47.986;11.868;2022-11-21T04:59:47;1.73;;;1.07;;
15393;SDS011;7795;47.986;11.868;2022-11-21T05:02:12;1.03;;;0.80;;
15393;SDS011;7795;47.986;11.868;2022-11-21T05:04:38;2.03;;;0.90;;
15393;SDS011;7795;47.986;11.868;2022-11-21T05:07:04;1.27;;;0.80;;
15393;SDS011;7795;47.986;11.868;2022-11-21T05:09:30;1.53;;;0.90;;
15393;SDS011;7795;47.986;11.868;2022-11-21T05:11:56;1.57;;;1.03;;
15393;SDS011;7795;47.986;11.868;2022-11-21T05:14:40;1.53;;;0.77;;
15393;SDS011;7795;47.986;11.868;2022-11-21T05:17:07;0.60;;;0.60;;
15393;SDS011;7795;47.986;11.868;2022-11-21T05:19:33;1.57;;;1.03;;
15393;SDS011;7795;47.986;11.868;2022-11-21T05:21:59;0.90;;;0.60;;
15393;SDS011;7795;47.986;11.868;2022-11-21T05:24:24;1.23;;;0.80;;
15393;SDS011;7795;47.986;11.868;2022-11-21T05:26:50;0.93;;;0.70;;
15393;SDS011;7795;47.986;11.868;2022-11-21T05:29:16;1.53;;;1.20;;
15393;SDS011;7795;47.986;11.868;2022-11-21T05:31:41;1.20;;;1.10;;
15393;SDS011;7795;47.986;11.868;2022-11-21T05:34:08;1.23;;;0.80;;
15393;SDS011;7795;47.986;11.868;2022-11-21T05:36:34;1.60;;;0.70;;
15393;SDS011;7795;47.986;11.868;2022-11-21T05:39:00;1.87;;;1.33;;
15393;SDS011;7795;47.986;11.868;2022-11-21T05:41:26;1.23;;;1.00;;
15393;SDS011;7795;47.986;11.868;2022-11-21T05:43:51;2.37;;;1.30;;
15393;SDS011;7795;47.986;11.868;2022-11-21T05:46:18;1.40;;;1.30;;
15393;SDS011;7795;47.986;11.868;2022-11-21T05:48:45;1.53;;;1.00;;
15393;SDS011;7795;47.986;11.868;2022-11-21T05:51:13;2.20;;;1.50;;
15393;SDS011;7795;47.986;11.868;2022-11-21T05:53:40;1.43;;;1.10;;
15393;SDS011;7795;47.986;11.868;2022-11-21T05:56:07;1.77;;;1.30;;
15393;SDS011;7795;47.986;11.868;2022-11-21T05:58:34;2.57;;;1.40;;
15393;SDS011;7795;47.986;11.868;2022-11-21T06:01:00;3.37;;;1.00;;
15393;SDS011;7795;47.986;11.868;2022-11-21T06:03:27;1.37;;;1.00;;
15393;SDS011;7795;47.986;11.868;2022-11-21T06:06:04;1.00;;;0.87;;
15393;SDS011;7795;47.986;11.868;2022-11-21T06:08:33;2.30;;;1.00;;
15393;SDS011;7795;47.986;11.868;2022-11-21T06:11:00;1.73;;;0.87;;
15393;SDS011;7795;47.986;11.868;2022-11-21T06:13:27;1.60;;;0.90;;
15393;SDS011;7795;47.986;11.868;2022-11-21T06:15:53;1.10;;;1.00;;
15393;SDS011;7795;47.986;11.868;2022-11-21T06:18:22;1.13;;;0.90;;
15393;SDS011;7795;47.986;11.868;2022-11-21T06:20:48;1.13;;;0.80;;
15393;SDS011;7795;47.986;11.868;2022-11-21T06:23:14;2.03;;;1.33;;
15393;SDS011;7795;47.986;11.868;2022-11-21T06:25:41;1.87;;;1.20;;
15393;SDS011;7795;47.986;11.868;2022-11-21T06:28:08;1.60;;;0.90;;
15393;SDS011;7795;47.986;11.868;2022-11-21T06:30:34;1.30;;;1.20;;
15393;SDS011;7795;47.986;11.868;2022-11-21T06:33:01;2.50;;;2.30;;
15393;SDS011;7795;47.986;11.868;2022-11-21T06:35:28;1.63;;;1.53;;
15393;SDS011;7795;47.986;11.868;2022-11-21T06:37:55;2.33;;;1.97;;
15393;SDS011;7795;47.986;11.868;2022-11-21T06:40:21;1.93;;;1.30;;
15393;SDS011;7795;47.986;11.868;2022-11-21T06:42:48;3.87;;;1.50;;
15393;SDS011;7795;47.986;11.868;2022-11-21T06:45:14;2.47;;;1.93;;
15393;SDS011;7795;47.986;11.868;2022-11-21T06:47:40;2.30;;;1.60;;
15393;SDS011;7795;47.986;11.868;2022-11-21T06:50:06;1.63;;;1.23;;
15393;SDS011;7795;47.986;11.868;2022-11-21T06:52:33;1.30;;;1.10;;
15393;SDS011;7795;47.986;11.868;2022-11-21T06:54:59;3.03;;;2.00;;
15393;SDS011;7795;47.986;11.868;2022-11-21T06:57:25;1.80;;;1.13;;
15393;SDS011;7795;47.986;11.868;2022-11-21T06:59:52;1.40;;;1.30;;
15393;SDS011;7795;47.986;11.868;2022-11-21T07:02:18;1.67;;;0.90;;
15393;SDS011;7795;47.986;11.868;2022-11-21T07:04:44;1.27;;;1.00;;
15393;SDS011;7795;47.986;11.868;2022-11-21T07:07:09;1.47;;;1.17;;
15393;SDS011;7795;47.986;11.868;2022-11-21T07:09:35;1.30;;;0.97;;
15393;SDS011;7795;47.986;11.868;2022-11-21T07:12:01;1.77;;;1.07;;
15393;SDS011;7795;47.986;11.868;2022-11-21T07:14:46;1.20;;;1.10;;
15393;SDS011;7795;47.986;11.868;2022-11-21T07:17:13;0.90;;;0.90;;
15393;SDS011;7795;47.986;11.868;2022-11-21T07:19:39;1.30;;;1.00;;
15393;SDS011;7795;47.986;11.868;2022-11-21T07:22:05;1.23;;;0.77;;
15393;SDS011;7795;47.986;11.868;2022-11-21T07:24:32;1.10;;;0.80;;
15393;SDS011;7795;47.986;11.868;2022-11-21T07:26:59;0.87;;;0.80;;
15393;SDS011;7795;47.986;11.868;2022-11-21T07:29:25;1.13;;;0.90;;
15393;SDS011;7795;47.986;11.868;2022-11-21T07:31:51;1.17;;;1.07;;
15393;SDS011;7795;47.986;11.868;2022-11-21T07:34:18;1.07;;;0.97;;
15393;SDS011;7795;47.986;11.868;2022-11-21T07:36:44;1.17;;;0.83;;
15393;SDS011;7795;47.986;11.868;2022-11-21T07:39:09;1.00;;;0.90;;
15393;SDS011;7795;47.986;11.868;2022-11-21T07:41:35;1.67;;;1.10;;
15393;SDS011;7795;47.986;11.868;2022-11-21T07:44:01;0.80;;;0.77;;
15393;SDS011;7795;47.986;11.868;2022-11-21T07:46:27;0.90;;;0.90;;
15393;SDS011;7795;47.986;11.868;2022-11-21T07:48:53;0.70;;;0.70;;
15393;SDS011;7795;47.986;11.868;2022-11-21T07:51:20;1.03;;;1.00;;
15393;SDS011;7795;47.986;11.868;2022-11-21T07:53:45;0.80;;;0.80;;
15393;SDS011;7795;47.986;11.868;2022-11-21T07:56:11;0.70;;;0.70;;
15393;SDS011;7795;47.986;11.868;2022-11-21T07:58:37;0.70;;;0.70;;
15393;SDS011;7795;47.986;11.868;2022-11-21T08:01:03;0.80;;;0.80;;
15393;SDS011;7795;47.986;11.868;2022-11-21T08:03:29;0.60;;;0.60;;
15393;SDS011;7795;47.986;11.868;2022-11-21T08:05:55;1.00;;;0.70;;
15393;SDS011;7795;47.986;11.868;2022-11-21T08:08:22;0.70;;;0.70;;
15393;SDS011;7795;47.986;11.868;2022-11-21T08:10:48;0.77;;;0.77;;
15393;SDS011;7795;47.986;11.868;2022-11-21T08:13:15;1.33;;;0.67;;
15393;SDS011;7795;47.986;11.868;2022-11-21T08:15:41;1.50;;;0.73;;
15393;SDS011;7795;47.986;11.868;2022-11-21T08:18:07;0.60;;;0.60;;
15393;SDS011;7795;47.986;11.868;2022-11-21T08:20:33;0.87;;;0.70;;
15393;SDS011;7795;47.986;11.868;2022-11-21T08:22:59;0.87;;;0.80;;
15393;SDS011;7795;47.986;11.868;2022-11-21T08:25:26;1.37;;;0.90;;
15393;SDS011;7795;47.986;11.868;2022-11-21T08:27:54;0.83;;;0.83;;
15393;SDS011;7795;47.986;11.868;2022-11-21T08:30:20;0.73;;;0.73;;
15393;SDS011;7795;47.986;11.868;2022-11-21T08:32:46;1.43;;;1.33;;
15393;SDS011;7795;47.986;11.868;2022-11-21T08:35:12;0.97;;;0.70;;
15393;SDS011;7795;47.986;11.868;2022-11-21T08:37:38;0.63;;;0.63;;
15393;SDS011;7795;47.986;11.868;2022-11-21T08:40:04;0.97;;;0.90;;
15393;SDS011;7795;47.986;11.868;2022-11-21T08:42:32;1.17;;;0.73;;
15393;SDS011;7795;47.986;11.868;2022-11-21T08:44:57;1.20;;;0.87;;
15393;SDS011;7795;47.986;11.868;2022-11-21T08:47:23;0.97;;;0.97;;
15393;SDS011;7795;47.986;11.868;2022-11-21T08:49:49;0.73;;;0.73;;
15393;SDS011;7795;47.986;11.868;2022-11-21T08:52:15;1.10;;;1.00;;
15393;SDS011;7795;47.986;11.868;2022-11-21T08:54:41;1.20;;;0.90;;
15393;SDS011;7795;47.986;11.868;2022-11-21T08:57:08;0.87;;;0.77;;
15393;SDS011;7795;47.986;11.868;2022-11-21T08:59:35;2.40;;;1.47;;
15393;SDS011;7795;47.986;11.868;2022-11-21T09:02:01;1.10;;;0.87;;
15393;SDS011;7795;47.986;11.868;2022-11-21T09:04:27;2.00;;;1.20;;
15393;SDS011;7795;47.986;11.868;2022-11-21T09:06:52;2.17;;;1.00;;
15393;SDS011;7795;47.986;11.868;2022-11-21T09:09:18;0.93;;;0.90;;
15393;SDS011;7795;47.986;11.868;2022-11-21T09:11:44;1.70;;;1.10;;
15393;SDS011;7795;47.986;11.868;2022-11-21T09:14:09;0.80;;;0.80;;
15393;SDS011;7795;47.986;11.868;2022-11-21T09:16:55;1.10;;;1.00;;
15393;SDS011;7795;47.986;11.868;2022-11-21T09:19:39;2.43;;;0.97;;
15393;SDS011;7795;47.986;11.868;2022-11-21T09:22:05;0.83;;;0.70;;
15393;SDS011;7795;47.986;11.868;2022-11-21T09:24:31;1.53;;;1.33;;
15393;SDS011;7795;47.986;11.868;2022-11-21T09:26:57;3.97;;;2.90;;
15393;SDS011;7795;47.986;11.868;2022-11-21T09:29:23;4.67;;;3.20;;
15393;SDS011;7795;47.986;11.868;2022-11-21T09:31:49;2.97;;;1.20;;
15393;SDS011;7795;47.986;11.868;2022-11-21T09:34:16;2.33;;;1.57;;
15393;SDS011;7795;47.986;11.868;2022-11-21T09:36:43;1.10;;;1.00;;
15393;SDS011;7795;47.986;11.868;2022-11-21T09:39:09;1.23;;;1.13;;
15393;SDS011;7795;47.986;11.868;2022-11-21T09:41:36;1.70;;;1.60;;
15393;SDS011;7795;47.986;11.868;2022-11-21T09:44:18;2.50;;;1.47;;
15393;SDS011;7795;47.986;11.868;2022-11-21T09:46:59;1.67;;;1.27;;
15393;SDS011;7795;47.986;11.868;2022-11-21T09:49:32;0.90;;;0.90;;
15393;SDS011;7795;47.986;11.868;2022-11-21T09:52:07;1.50;;;1.30;;
15393;SDS011;7795;47.986;11.868;2022-11-21T09:54:35;3.23;;;2.70;;
15393;SDS011;7795;47.986;11.868;2022-11-21T09:57:07;3.50;;;2.50;;
15393;SDS011;7795;47.986;11.868;2022-11-21T09:59:34;2.43;;;1.27;;
15393;SDS011;7795;47.986;11.868;2022-11-21T10:02:07;2.87;;;1.50;;
15393;SDS011;7795;47.986;11.868;2022-11-21T10:04:39;6.57;;;4.03;;
15393;SDS011;7795;47.986;11.868;2022-11-21T10:07:05;5.57;;;2.97;;
15393;SDS011;7795;47.986;11.868;2022-11-21T10:09:40;6.80;;;3.47;;
15393;SDS011;7795;47.986;11.868;2022-11-21T10:12:13;5.80;;;3.67;;
15393;SDS011;7795;47.986;11.868;2022-11-21T10:15:02;4.97;;;2.07;;
15393;SDS011;7795;47.986;11.868;2022-11-21T10:17:42;2.40;;;1.50;;
15393;SDS011;7795;47.986;11.868;2022-11-21T10:20:23;1.70;;;1.40;;
15393;SDS011;7795;47.986;11.868;2022-11-21T10:23:01;1.40;;;1.20;;
15393;SDS011;7795;47.986;11.868;2022-11-21T10:25:42;2.43;;;1.47;;
15393;SDS011;7795;47.986;11.868;2022-11-21T10:28:13;2.10;;;1.67;;
15393;SDS011;7795;47.986;11.868;2022-11-21T10:30:43;2.60;;;1.60;;
15393;SDS011;7795;47.986;11.868;2022-11-21T10:33:11;1.40;;;1.30;;
15393;SDS011;7795;47.986;11.868;2022-11-21T10:35:43;1.43;;;1.23;;
15393;SDS011;7795;47.986;11.868;2022-11-21T10:38:16;1.50;;;1.40;;
15393;SDS011;7795;47.986;11.868;2022-11-21T10:40:45;2.80;;;1.20;;
15393;SDS011;7795;47.986;11.868;2022-11-21T10:43:18;1.37;;;1.17;;
15393;SDS011;7795;47.986;11.868;2022-11-21T10:46:08;1.80;;;1.60;;
15393;SDS011;7795;47.986;11.868;2022-11-21T10:48:34;1.73;;;1.23;;
15393;SDS011;7795;47.986;11.868;2022-11-21T10:54:01;2.83;;;1.33;;
15393;SDS011;7795;47.986;11.868;2022-11-21T10:56:50;1.23;;;1.10;;
15393;SDS011;7795;47.986;11.868;2022-11-21T10:59:19;1.77;;;1.53;;
15393;SDS011;7795;47.986;11.868;2022-11-21T11:01:53;1.10;;;0.90;;
15393;SDS011;7795;47.986;11.868;2022-11-21T11:04:19;2.90;;;1.10;;
15393;SDS011;7795;47.986;11.868;2022-11-21T11:06:47;4.17;;;1.10;;
15393;SDS011;7795;47.986;11.868;2022-11-21T11:12:20;3.83;;;1.30;;
15393;SDS011;7795;47.986;11.868;2022-11-21T11:14:51;1.77;;;0.90;;
15393;SDS011;7795;47.986;11.868;2022-11-21T11:17:25;2.80;;;1.30;;
15393;SDS011;7795;47.986;11.868;2022-11-21T11:19:59;3.53;;;1.10;;
15393;SDS011;7795;47.986;11.868;2022-11-21T11:22:28;13.80;;;2.53;;
15393;SDS011;7795;47.986;11.868;2022-11-21T11:24:54;5.03;;;1.23;;
15393;SDS011;7795;47.986;11.868;2022-11-21T11:27:25;3.97;;;1.20;;
15393;SDS011;7795;47.986;11.868;2022-11-21T11:29:51;3.37;;;1.00;;
15393;SDS011;7795;47.986;11.868;2022-11-21T11:32:17;3.20;;;1.40;;
15393;SDS011;7795;47.986;11.868;2022-11-21T11:34:45;4.20;;;1.37;;
15393;SDS011;7795;47.986;11.868;2022-11-21T11:37:24;1.63;;;0.90;;
15393;SDS011;7795;47.986;11.868;2022-11-21T11:39:59;2.67;;;1.10;;
15393;SDS011;7795;47.986;11.868;2022-11-21T11:42:42;4.33;;;1.10;;
15393;SDS011;7795;47.986;11.868;2022-11-21T11:45:40;4.33;;;1.43;;
15393;SDS011;7795;47.986;11.868;2022-11-21T11:48:43;7.17;;;1.73;;
15393;SDS011;7795;47.986;11.868;2022-11-21T11:51:12;7.20;;;2.50;;
15393;SDS011;7795;47.986;11.868;2022-11-21T11:53:47;12.70;;;3.20;;
15393;SDS011;7795;47.986;11.868;2022-11-21T11:56:18;5.43;;;1.63;;
15393;SDS011;7795;47.986;11.868;2022-11-21T11:58:47;4.50;;;1.70;;
15393;SDS011;7795;47.986;11.868;2022-11-21T12:01:17;2.53;;;1.67;;
15393;SDS011;7795;47.986;11.868;2022-11-21T12:03:47;4.37;;;1.30;;
15393;SDS011;7795;47.986;11.868;2022-11-21T12:06:20;2.47;;;1.47;;
15393;SDS011;7795;47.986;11.868;2022-11-21T12:08:52;1.10;;;0.93;;
15393;SDS011;7795;47.986;11.868;2022-11-21T12:11:27;1.60;;;1.20;;
15393;SDS011;7795;47.986;11.868;2022-11-21T12:14:25;2.10;;;2.00;;
15393;SDS011;7795;47.986;11.868;2022-11-21T12:17:18;1.70;;;1.60;;
15393;SDS011;7795;47.986;11.868;2022-11-21T12:19:49;3.90;;;1.93;;
15393;SDS011;7795;47.986;11.868;2022-11-21T12:22:18;1.40;;;1.00;;
15393;SDS011;7795;47.986;11.868;2022-11-21T12:24:45;1.70;;;1.20;;
15393;SDS011;7795;47.986;11.868;2022-11-21T12:27:25;1.40;;;1.30;;
15393;SDS011;7795;47.986;11.868;2022-11-21T12:29:59;2.27;;;1.40;;
15393;SDS011;7795;47.986;11.868;2022-11-21T12:32:39;1.03;;;0.80;;
15393;SDS011;7795;47.986;11.868;2022-11-21T12:35:20;2.10;;;0.93;;
15393;SDS011;7795;47.986;11.868;2022-11-21T12:38:03;1.63;;;1.17;;
15393;SDS011;7795;47.986;11.868;2022-11-21T12:40:44;1.73;;;0.90;;
15393;SDS011;7795;47.986;11.868;2022-11-21T12:43:19;0.83;;;0.80;;
15393;SDS011;7795;47.986;11.868;2022-11-21T12:46:01;1.87;;;1.00;;
15393;SDS011;7795;47.986;11.868;2022-11-21T12:48:36;2.07;;;0.97;;
15393;SDS011;7795;47.986;11.868;2022-11-21T12:54:43;3.00;;;1.80;;
15393;SDS011;7795;47.986;11.868;2022-11-21T12:57:30;1.53;;;1.20;;
15393;SDS011;7795;47.986;11.868;2022-11-21T13:00:07;2.93;;;1.70;;
15393;SDS011;7795;47.986;11.868;2022-11-21T13:02:42;5.53;;;3.93;;
15393;SDS011;7795;47.986;11.868;2022-11-21T13:05:28;2.70;;;2.17;;
15393;SDS011;7795;47.986;11.868;2022-11-21T13:07:58;1.80;;;1.20;;
15393;SDS011;7795;47.986;11.868;2022-11-21T13:10:26;3.67;;;1.57;;
15393;SDS011;7795;47.986;11.868;2022-11-21T13:12:56;2.30;;;1.10;;
15393;SDS011;7795;47.986;11.868;2022-11-21T13:15:27;1.40;;;1.10;;
15393;SDS011;7795;47.986;11.868;2022-11-21T13:17:56;3.03;;;1.40;;
15393;SDS011;7795;47.986;11.868;2022-11-21T13:20:29;2.37;;;1.57;;
15393;SDS011;7795;47.986;11.868;2022-11-21T13:22:59;2.20;;;1.37;;
15393;SDS011;7795;47.986;11.868;2022-11-21T13:25:34;1.93;;;1.20;;
15393;SDS011;7795;47.986;11.868;2022-11-21T13:30:53;1.73;;;1.00;;
15393;SDS011;7795;47.986;11.868;2022-11-21T13:42:00;3.37;;;1.40;;
15393;SDS011;7795;47.986;11.868;2022-11-21T13:44:51;4.07;;;1.17;;
15393;SDS011;7795;47.986;11.868;2022-11-21T13:50:19;2.73;;;1.50;;
15393;SDS011;7795;47.986;11.868;2022-11-21T13:52:59;2.27;;;0.90;;
15393;SDS011;7795;47.986;11.868;2022-11-21T13:55:38;3.87;;;1.23;;
15393;SDS011;7795;47.986;11.868;2022-11-21T13:58:16;2.27;;;0.93;;
15393;SDS011;7795;47.986;11.868;2022-11-21T14:00:56;1.67;;;1.00;;
15393;SDS011;7795;47.986;11.868;2022-11-21T14:03:55;2.70;;;1.73;;
15393;SDS011;7795;47.986;11.868;2022-11-21T14:06:44;3.93;;;1.50;;
15393;SDS011;7795;47.986;11.868;2022-11-21T14:09:17;2.87;;;1.50;;
15393;SDS011;7795;47.986;11.868;2022-11-21T14:11:46;1.23;;;1.00;;
15393;SDS011;7795;47.986;11.868;2022-11-21T14:14:22;4.20;;;1.70;;
15393;SDS011;7795;47.986;11.868;2022-11-21T14:17:01;2.93;;;1.40;;
15393;SDS011;7795;47.986;11.868;2022-11-21T14:19:45;4.13;;;1.80;;
15393;SDS011;7795;47.986;11.868;2022-11-21T14:22:15;2.83;;;1.50;;
15393;SDS011;7795;47.986;11.868;2022-11-21T14:24:48;1.20;;;1.00;;
15393;SDS011;7795;47.986;11.868;2022-11-21T14:27:16;3.00;;;0.83;;
15393;SDS011;7795;47.986;11.868;2022-11-21T14:29:49;1.37;;;0.93;;
15393;SDS011;7795;47.986;11.868;2022-11-21T14:32:16;1.73;;;0.80;;
15393;SDS011;7795;47.986;11.868;2022-11-21T14:34:50;4.13;;;1.00;;
15393;SDS011;7795;47.986;11.868;2022-11-21T14:37:16;4.10;;;1.03;;
15393;SDS011;7795;47.986;11.868;2022-11-21T14:39:42;3.60;;;0.83;;
15393;SDS011;7795;47.986;11.868;2022-11-21T14:42:11;2.17;;;1.00;;
15393;SDS011;7795;47.986;11.868;2022-11-21T14:44:39;5.20;;;1.43;;
15393;SDS011;7795;47.986;11.868;2022-11-21T14:47:11;10.50;;;1.67;;
15393;SDS011;7795;47.986;11.868;2022-11-21T14:49:47;8.37;;;2.77;;
15393;SDS011;7795;47.986;11.868;2022-11-21T14:52:15;2.40;;;1.30;;
15393;SDS011;7795;47.986;11.868;2022-11-21T14:54:44;2.93;;;1.10;;
15393;SDS011;7795;47.986;11.868;2022-11-21T14:57:13;4.77;;;1.10;;
15393;SDS011;7795;47.986;11.868;2022-11-21T14:59:44;3.87;;;1.13;;
15393;SDS011;7795;47.986;11.868;2022-11-21T15:02:11;3.30;;;1.70;;
15393;SDS011;7795;47.986;11.868;2022-11-21T15:04:39;2.90;;;1.80;;
15393;SDS011;7795;47.986;11.868;2022-11-21T15:07:15;4.87;;;2.43;;
15393;SDS011;7795;47.986;11.868;2022-11-21T15:09:43;4.70;;;1.93;;
15393;SDS011;7795;47.986;11.868;2022-11-21T15:12:09;7.17;;;2.20;;
15393;SDS011;7795;47.986;11.868;2022-11-21T15:14:40;4.63;;;1.63;;
15393;SDS011;7795;47.986;11.868;2022-11-21T15:17:10;7.97;;;2.10;;
15393;SDS011;7795;47.986;11.868;2022-11-21T15:19:40;5.83;;;2.60;;
15393;SDS011;7795;47.986;11.868;2022-11-21T15:22:14;3.90;;;2.13;;
15393;SDS011;7795;47.986;11.868;2022-11-21T15:24:47;5.10;;;2.60;;